Time;durP1;ratioP1;P1;durP2;ratioP2;P2;SDS_P1;SDS_P2;PMS_P1;PMS_P2;Temp;Humidity;BMP_temperature;BMP_pressure;BME280_temperature;BME280_humidity;BME280_pressure;Samples;Min_cycle;Max_cycle;Signal;HPM_P1;HPM_P2
2023/01/10 00:01:37;;;;;;;2.30;1.10;;;7.30;99.90;;;;;;5075436;28;20032;-69
2023/01/10 00:04:03;;;;;;;5.15;1.20;;;7.30;99.90;;;;;;5075598;28;20318;-69
2023/01/10 00:06:28;;;;;;;2.08;1.10;;;7.30;99.90;;;;;;5074718;28;20016;-69
2023/01/10 00:08:56;;;;;;;2.28;0.70;;;7.30;99.90;;;;;;5073727;28;20138;-69
2023/01/10 00:14:07;;;;;;;2.95;1.10;;;7.10;99.90;;;;;;5075101;28;20043;-69
2023/01/10 00:16:32;;;;;;;2.10;1.23;;;7.20;99.90;;;;;;5074861;28;20036;-69
2023/01/10 00:18:58;;;;;;;3.10;1.85;;;7.20;99.90;;;;;;5074108;28;20040;-69
2023/01/10 00:21:23;;;;;;;4.07;1.55;;;7.20;99.90;;;;;;5073450;28;20020;-69
2023/01/10 00:23:49;;;;;;;3.20;1.30;;;7.20;99.90;;;;;;5074717;28;20024;-69
2023/01/10 00:26:14;;;;;;;1.55;1.10;;;7.30;99.90;;;;;;5074573;28;20024;-69
2023/01/10 00:28:41;;;;;;;2.83;1.05;;;7.20;99.90;;;;;;5074868;28;20028;-69
2023/01/10 00:31:10;;;;;;;2.55;1.00;;;7.20;99.90;;;;;;5074764;28;20044;-69
2023/01/10 00:33:36;;;;;;;7.38;1.25;;;7.20;99.90;;;;;;5073472;28;20028;-69
2023/01/10 00:36:04;;;;;;;3.33;1.30;;;7.20;99.90;;;;;;5073330;28;20059;-69
2023/01/10 00:38:30;;;;;;;3.20;1.33;;;7.30;99.90;;;;;;5075010;28;20054;-69
2023/01/10 00:40:56;;;;;;;3.95;1.52;;;7.30;99.90;;;;;;5080278;28;20028;-68
2023/01/10 00:46:06;;;;;;;2.40;1.55;;;7.30;99.90;;;;;;5075301;28;20032;-69
2023/01/10 00:48:32;;;;;;;2.53;1.38;;;7.30;99.90;;;;;;5074425;28;20546;-69
2023/01/10 00:50:57;;;;;;;3.85;1.42;;;7.30;99.90;;;;;;5074730;28;20099;-69
2023/01/10 00:53:23;;;;;;;3.08;1.67;;;7.30;99.90;;;;;;5074498;28;20059;-69
2023/01/10 00:55:48;;;;;;;2.03;1.60;;;7.30;99.90;;;;;;5073154;28;20036;-69
2023/01/10 00:58:15;;;;;;;2.13;1.75;;;7.30;99.90;;;;;;5072652;28;20025;-69
2023/01/10 01:00:41;;;;;;;3.72;1.55;;;7.30;99.90;;;;;;5072813;28;20029;-68
2023/01/10 01:03:07;;;;;;;4.05;1.42;;;7.30;99.90;;;;;;5072797;28;20036;-68
2023/01/10 01:05:38;;;;;;;2.03;1.13;;;7.40;99.90;;;;;;5072947;28;20020;-68
2023/01/10 01:08:04;;;;;;;5.15;1.60;;;7.40;99.90;;;;;;5073779;28;20025;-68
2023/01/10 01:10:29;;;;;;;3.83;1.38;;;7.40;99.90;;;;;;5073802;28;20035;-68
2023/01/10 01:13:05;;;;;;;2.47;1.25;;;7.40;99.90;;;;;;5072276;28;20021;-68
2023/01/10 01:15:33;;;;;;;6.63;1.83;;;7.40;99.90;;;;;;5073608;28;20112;-68
2023/01/10 01:18:00;;;;;;;3.50;1.67;;;7.40;99.90;;;;;;5072288;28;20017;-68
2023/01/10 01:20:26;;;;;;;3.88;1.80;;;7.40;99.90;;;;;;5072399;28;20365;-68
2023/01/10 01:22:51;;;;;;;3.58;1.42;;;7.40;99.90;;;;;;5072491;28;20024;-67
2023/01/10 01:25:17;;;;;;;4.25;1.70;;;7.30;99.90;;;;;;5072567;28;20029;-68
2023/01/10 01:27:42;;;;;;;3.20;1.75;;;7.30;99.90;;;;;;5073339;28;20039;-68
2023/01/10 01:30:09;;;;;;;3.95;2.22;;;7.20;99.90;;;;;;5073012;28;20078;-68
2023/01/10 01:32:35;;;;;;;3.47;1.85;;;7.20;99.90;;;;;;5072017;28;20024;-68
2023/01/10 01:35:01;;;;;;;9.35;2.85;;;7.20;99.90;;;;;;5073293;28;20021;-68
2023/01/10 01:37:26;;;;;;;5.15;2.05;;;7.20;99.90;;;;;;5072943;28;20057;-69
2023/01/10 01:39:52;;;;;;;5.93;2.15;;;7.20;99.90;;;;;;5072792;28;20025;-69
2023/01/10 01:42:25;;;;;;;4.10;2.13;;;7.30;99.90;;;;;;5072148;28;20116;-69
2023/01/10 01:45:27;;;;;;;7.80;2.30;;;7.20;99.90;;;;;;5073369;28;20027;-69
2023/01/10 01:48:02;;;;;;;5.20;2.22;;;7.20;99.90;;;;;;5080024;28;20028;-70
2023/01/10 01:51:04;;;;;;;7.30;2.30;;;7.10;99.90;;;;;;5072647;28;20028;-70
2023/01/10 01:53:34;;;;;;;5.35;2.53;;;7.10;99.90;;;;;;5073351;28;20046;-69
2023/01/10 01:56:06;;;;;;;6.40;3.05;;;7.10;99.90;;;;;;5073032;28;20048;-70
2023/01/10 01:58:55;;;;;;;5.45;2.95;;;7.20;99.90;;;;;;5073206;28;20020;-70
2023/01/10 02:01:21;;;;;;;3.65;2.22;;;7.20;99.90;;;;;;5073397;28;20042;-70
2023/01/10 02:03:52;;;;;;;3.72;2.60;;;7.20;99.90;;;;;;5071768;28;20086;-69
2023/01/10 02:06:19;;;;;;;5.88;2.33;;;7.20;99.90;;;;;;5071834;28;20032;-69
2023/01/10 02:08:54;;;;;;;6.95;2.72;;;7.10;99.90;;;;;;5072961;28;20071;-69
2023/01/10 02:11:19;;;;;;;7.20;2.80;;;6.90;99.90;;;;;;5071818;28;20035;-69
2023/01/10 02:13:46;;;;;;;6.85;2.78;;;6.90;99.90;;;;;;5071975;28;20021;-69
2023/01/10 02:16:12;;;;;;;4.05;2.15;;;6.90;99.90;;;;;;5071855;28;20055;-69
2023/01/10 02:18:41;;;;;;;6.65;3.10;;;7.00;99.90;;;;;;5071643;28;20032;-69
2023/01/10 02:21:12;;;;;;;4.25;2.58;;;7.10;99.90;;;;;;5071673;28;20025;-69
2023/01/10 02:23:50;;;;;;;3.90;2.65;;;7.10;99.90;;;;;;5071707;28;20028;-69
2023/01/10 02:26:26;;;;;;;6.03;2.22;;;7.10;99.90;;;;;;5071709;28;20021;-69
2023/01/10 02:29:16;;;;;;;8.25;2.50;;;7.10;99.90;;;;;;5072951;28;20107;-69
2023/01/10 02:32:10;;;;;;;7.25;2.45;;;7.10;99.90;;;;;;5075223;28;20040;-69
2023/01/10 02:34:51;;;;;;;5.30;2.50;;;7.10;99.90;;;;;;5073003;28;20107;-69
2023/01/10 02:37:29;;;;;;;7.07;2.70;;;7.10;99.90;;;;;;5071593;28;20051;-69
2023/01/10 02:40:06;;;;;;;3.40;2.50;;;7.20;99.90;;;;;;5072129;28;20104;-69
2023/01/10 02:43:14;;;;;;;6.57;2.97;;;7.30;99.90;;;;;;5071533;28;20107;-69
2023/01/10 02:45:49;;;;;;;7.45;2.90;;;7.40;99.90;;;;;;5073115;28;20383;-69
2023/01/10 02:48:16;;;;;;;8.27;2.78;;;7.40;99.90;;;;;;5072694;28;20020;-69
2023/01/10 02:50:42;;;;;;;8.20;2.90;;;7.40;99.90;;;;;;5075417;28;20028;-69
2023/01/10 02:53:26;;;;;;;9.30;2.90;;;7.40;99.90;;;;;;5076461;28;20020;-69
2023/01/10 02:55:57;;;;;;;7.78;2.50;;;7.30;99.90;;;;;;5079689;28;20028;-69
2023/01/10 02:58:52;;;;;;;7.18;2.55;;;7.30;99.90;;;;;;5077520;28;20029;-69
2023/01/10 03:01:33;;;;;;;3.28;2.25;;;7.30;99.90;;;;;;5074925;28;20024;-69
2023/01/10 03:04:17;;;;;;;10.67;2.80;;;7.30;99.90;;;;;;5075244;28;20039;-69
2023/01/10 03:06:51;;;;;;;6.20;2.15;;;7.30;99.90;;;;;;5076592;28;20020;-69
2023/01/10 03:09:28;;;;;;;8.88;2.33;;;7.30;99.90;;;;;;5075105;28;20537;-69
2023/01/10 03:12:03;;;;;;;6.43;2.67;;;7.10;99.90;;;;;;5074797;28;20029;-69
2023/01/10 03:14:31;;;;;;;5.25;2.55;;;7.10;99.90;;;;;;5075726;28;20024;-69
2023/01/10 03:17:06;;;;;;;8.43;2.85;;;6.90;99.90;;;;;;5074739;28;20024;-69
2023/01/10 03:19:37;;;;;;;7.93;2.45;;;6.80;99.90;;;;;;5074613;28;20094;-69
2023/01/10 03:22:04;;;;;;;6.80;2.50;;;6.70;99.90;;;;;;5074496;28;20052;-68
2023/01/10 03:24:40;;;;;;;6.00;2.53;;;6.60;99.90;;;;;;5074578;28;20024;-68
2023/01/10 03:27:08;;;;;;;5.47;2.38;;;6.60;99.90;;;;;;5076376;28;20024;-68
2023/01/10 03:29:53;;;;;;;5.82;2.88;;;6.50;99.90;;;;;;5076387;28;20031;-68
2023/01/10 03:32:24;;;;;;;8.05;2.85;;;6.50;99.90;;;;;;5075565;28;20029;-69
2023/01/10 03:34:50;;;;;;;8.60;2.50;;;6.50;99.90;;;;;;5075255;28;20035;-68
2023/01/10 03:37:43;;;;;;;6.28;2.70;;;6.50;99.90;;;;;;5075197;28;20290;-68
2023/01/10 03:40:18;;;;;;;9.82;3.40;;;6.50;99.90;;;;;;5075351;28;20028;-69
2023/01/10 03:45:50;;;;;;;7.03;3.10;;;6.50;99.90;;;;;;5075758;28;20040;-69
2023/01/10 03:48:19;;;;;;;12.23;3.35;;;6.50;99.90;;;;;;5075428;28;20033;-69
2023/01/10 03:50:46;;;;;;;5.95;3.20;;;6.40;99.90;;;;;;5074056;28;20055;-69
2023/01/10 03:53:14;;;;;;;8.27;2.67;;;6.40;99.90;;;;;;5074100;28;20119;-69
2023/01/10 03:55:41;;;;;;;4.07;2.35;;;6.30;99.90;;;;;;5073858;28;20112;-70
2023/01/10 03:58:07;;;;;;;10.10;3.08;;;6.30;99.90;;;;;;5074073;28;20027;-69
2023/01/10 04:00:32;;;;;;;7.60;2.83;;;6.30;99.90;;;;;;5074774;28;20025;-69
2023/01/10 04:02:58;;;;;;;5.90;2.47;;;6.30;99.90;;;;;;5075288;28;20040;-69
2023/01/10 04:05:24;;;;;;;10.73;3.40;;;6.30;99.90;;;;;;5074796;28;20107;-69
2023/01/10 04:07:50;;;;;;;7.63;3.10;;;6.20;99.90;;;;;;5074018;28;20428;-69
2023/01/10 04:10:15;;;;;;;7.97;3.20;;;6.20;99.90;;;;;;5074348;28;20071;-68
2023/01/10 04:12:41;;;;;;;6.88;2.25;;;6.30;99.90;;;;;;5075048;28;20025;-68
2023/01/10 04:15:07;;;;;;;9.15;3.60;;;6.40;99.90;;;;;;5073462;28;20021;-68
2023/01/10 04:17:32;;;;;;;6.95;2.72;;;6.60;99.90;;;;;;5073379;28;20028;-68
2023/01/10 04:19:58;;;;;;;9.90;2.40;;;6.70;99.90;;;;;;5074508;28;20029;-68
2023/01/10 04:22:23;;;;;;;11.05;2.50;;;6.90;99.90;;;;;;5074536;28;20044;-68
2023/01/10 04:24:50;;;;;;;7.40;2.00;;;6.90;99.90;;;;;;5073253;28;20024;-69
2023/01/10 04:27:16;;;;;;;6.40;2.50;;;7.00;99.90;;;;;;5073115;28;20021;-69
2023/01/10 04:29:42;;;;;;;6.10;2.13;;;6.90;99.90;;;;;;5074425;28;20108;-68
2023/01/10 04:32:07;;;;;;;5.88;2.28;;;7.00;99.90;;;;;;5074422;28;20096;-68
2023/01/10 04:34:33;;;;;;;5.00;1.80;;;7.10;99.90;;;;;;5073389;28;20025;-68
2023/01/10 04:36:58;;;;;;;6.65;1.80;;;7.10;99.90;;;;;;5073061;28;20024;-68
2023/01/10 04:39:24;;;;;;;5.70;1.92;;;7.10;99.90;;;;;;5073736;28;20024;-68
2023/01/10 04:41:49;;;;;;;8.43;2.00;;;7.10;99.90;;;;;;5073357;28;20031;-68
2023/01/10 04:44:15;;;;;;;11.35;1.98;;;7.10;99.90;;;;;;5074169;28;20029;-68
2023/01/10 04:46:40;;;;;;;5.65;2.75;;;7.20;99.90;;;;;;5073575;28;20021;-68
2023/01/10 04:49:07;;;;;;;7.45;2.10;;;7.20;99.90;;;;;;5073837;28;20060;-68
2023/01/10 04:51:33;;;;;;;5.55;2.35;;;7.20;99.90;;;;;;5074033;28;20025;-68
2023/01/10 04:53:58;;;;;;;4.93;1.88;;;7.10;99.90;;;;;;5072578;28;20321;-68
2023/01/10 04:56:24;;;;;;;8.55;2.40;;;7.10;99.90;;;;;;5073852;28;20027;-68
2023/01/10 04:58:49;;;;;;;9.15;2.65;;;7.10;99.90;;;;;;5072513;28;20677;-68
2023/01/10 05:01:19;;;;;;;7.50;2.40;;;7.10;99.90;;;;;;5072748;28;20099;-69
2023/01/10 05:03:47;;;;;;;6.65;2.28;;;7.00;99.90;;;;;;5073889;28;20158;-68
2023/01/10 05:06:13;;;;;;;7.40;2.22;;;6.90;99.90;;;;;;5072376;28;20157;-68
2023/01/10 05:08:39;;;;;;;7.03;2.40;;;7.00;99.90;;;;;;5073617;28;20060;-69
2023/01/10 05:11:04;;;;;;;8.23;1.63;;;7.00;99.90;;;;;;5074351;28;20051;-68
2023/01/10 05:13:29;;;;;;;8.13;2.35;;;7.10;99.90;;;;;;5071683;28;20086;-68
2023/01/10 05:15:56;;;;;;;4.65;1.88;;;7.10;99.90;;;;;;5072357;28;20025;-68
2023/01/10 05:18:23;;;;;;;4.40;1.92;;;7.10;99.90;;;;;;5072311;28;20036;-68
2023/01/10 05:20:48;;;;;;;10.38;1.95;;;7.10;99.90;;;;;;5072326;28;20074;-68
2023/01/10 05:23:14;;;;;;;11.55;2.25;;;7.00;99.90;;;;;;5072072;28;20033;-68
2023/01/10 05:25:40;;;;;;;3.85;1.83;;;6.90;99.90;;;;;;5072089;28;20141;-68
2023/01/10 05:28:05;;;;;;;10.32;2.22;;;6.90;99.90;;;;;;5073358;28;20023;-68
2023/01/10 05:30:31;;;;;;;11.50;2.22;;;6.80;99.90;;;;;;5072694;28;20032;-68
2023/01/10 05:32:56;;;;;;;3.42;1.73;;;6.80;99.90;;;;;;5071859;28;20029;-69
2023/01/10 05:35:22;;;;;;;8.55;2.55;;;6.80;99.90;;;;;;5073298;28;20021;-69
2023/01/10 05:37:47;;;;;;;4.72;1.92;;;6.90;99.90;;;;;;5071898;28;20020;-69
2023/01/10 05:40:13;;;;;;;7.55;2.50;;;7.00;99.90;;;;;;5071828;28;20036;-69
2023/01/10 05:42:38;;;;;;;6.20;2.53;;;7.00;99.90;;;;;;5071839;28;20029;-69
2023/01/10 05:45:04;;;;;;;6.38;2.13;;;7.10;99.90;;;;;;5073462;28;20027;-68
2023/01/10 05:47:30;;;;;;;4.00;1.98;;;7.10;99.90;;;;;;5071893;28;20047;-68
2023/01/10 05:49:55;;;;;;;10.27;1.85;;;7.10;99.90;;;;;;5071774;28;20029;-68
2023/01/10 05:52:21;;;;;;;8.70;2.25;;;7.20;99.90;;;;;;5073393;28;20029;-69
2023/01/10 05:54:46;;;;;;;6.40;2.42;;;7.10;99.90;;;;;;5073508;28;20024;-69
2023/01/10 05:57:12;;;;;;;4.35;2.08;;;7.10;99.90;;;;;;5072099;28;20017;-69
2023/01/10 05:59:37;;;;;;;4.38;1.58;;;7.00;99.90;;;;;;5073212;28;20021;-68
2023/01/10 06:02:03;;;;;;;5.55;2.60;;;7.10;99.90;;;;;;5071588;28;20028;-69
2023/01/10 06:04:29;;;;;;;3.90;2.25;;;7.10;99.90;;;;;;5072952;28;20020;-69
2023/01/10 06:06:54;;;;;;;7.82;2.20;;;7.10;99.90;;;;;;5072937;28;20027;-69
2023/01/10 06:09:20;;;;;;;11.20;2.75;;;7.00;99.90;;;;;;5071586;28;20024;-69
2023/01/10 06:11:45;;;;;;;12.07;2.25;;;7.00;99.90;;;;;;5071601;28;20051;-69
2023/01/10 06:14:11;;;;;;;9.93;2.53;;;7.00;99.90;;;;;;5072598;28;20120;-68
2023/01/10 06:16:36;;;;;;;10.52;2.42;;;7.00;99.90;;;;;;5072924;28;20016;-69
2023/01/10 06:19:02;;;;;;;8.65;2.70;;;7.10;99.90;;;;;;5072503;28;20111;-69
2023/01/10 06:21:28;;;;;;;6.85;1.92;;;7.10;99.90;;;;;;5071798;28;20055;-69
2023/01/10 06:23:53;;;;;;;10.25;2.78;;;7.10;99.90;;;;;;5073012;28;20029;-69
2023/01/10 06:26:19;;;;;;;13.00;2.13;;;7.00;99.90;;;;;;5076995;28;20024;-69
2023/01/10 06:28:44;;;;;;;7.35;2.15;;;7.10;99.90;;;;;;5076762;28;20029;-69
2023/01/10 06:31:10;;;;;;;9.00;1.98;;;7.10;99.90;;;;;;5076967;28;20048;-69
2023/01/10 06:33:37;;;;;;;9.20;1.98;;;7.10;99.90;;;;;;5075628;28;20030;-69
2023/01/10 06:36:03;;;;;;;5.97;1.95;;;7.20;99.90;;;;;;5075333;28;20024;-69
2023/01/10 06:38:29;;;;;;;11.05;2.33;;;7.10;99.90;;;;;;5075725;28;20048;-69
2023/01/10 06:40:54;;;;;;;6.93;2.25;;;7.00;99.90;;;;;;5075314;28;20020;-68
2023/01/10 06:43:20;;;;;;;6.20;2.55;;;6.90;99.90;;;;;;5075229;28;20107;-68
2023/01/10 06:45:45;;;;;;;7.05;2.05;;;6.70;99.90;;;;;;5076582;28;20020;-69
2023/01/10 06:48:11;;;;;;;6.80;2.47;;;6.70;99.90;;;;;;5075383;28;20016;-68
2023/01/10 06:50:36;;;;;;;6.43;1.92;;;6.80;99.90;;;;;;5075032;28;20013;-68
2023/01/10 06:53:03;;;;;;;17.83;2.03;;;6.80;99.90;;;;;;5074970;28;20020;-68
2023/01/10 06:55:29;;;;;;;5.93;2.08;;;6.90;99.90;;;;;;5074701;28;20025;-68
2023/01/10 06:57:57;;;;;;;7.35;1.70;;;7.10;99.90;;;;;;5076312;28;20028;-68
2023/01/10 07:00:23;;;;;;;10.85;3.00;;;7.10;99.90;;;;;;5076154;28;20028;-68
2023/01/10 07:02:49;;;;;;;11.50;2.25;;;7.10;99.90;;;;;;5074980;28;20039;-68
2023/01/10 07:05:14;;;;;;;8.45;1.80;;;7.00;99.90;;;;;;5076802;28;20024;-68
2023/01/10 07:07:40;;;;;;;5.53;1.92;;;6.80;99.90;;;;;;5075078;28;20020;-68
2023/01/10 07:10:06;;;;;;;6.85;1.75;;;6.80;99.90;;;;;;5074760;28;20119;-68
2023/01/10 07:12:31;;;;;;;6.80;2.22;;;6.80;99.90;;;;;;5075840;28;20036;-68
2023/01/10 07:14:57;;;;;;;5.97;1.70;;;6.90;99.90;;;;;;5074693;28;20506;-68
2023/01/10 07:17:22;;;;;;;8.10;2.00;;;6.90;99.90;;;;;;5075660;28;20078;-69
2023/01/10 07:19:48;;;;;;;7.03;2.00;;;7.00;99.90;;;;;;5074526;28;20078;-69
2023/01/10 07:22:13;;;;;;;9.82;2.33;;;7.00;99.90;;;;;;5076011;28;20020;-69
2023/01/10 07:24:39;;;;;;;5.40;1.55;;;7.00;99.90;;;;;;5074454;28;20020;-69
2023/01/10 07:27:04;;;;;;;6.30;2.58;;;7.00;99.90;;;;;;5074428;28;20062;-69
2023/01/10 07:29:30;;;;;;;7.80;2.17;;;7.00;99.90;;;;;;5074604;28;20028;-68
2023/01/10 07:31:55;;;;;;;9.40;3.15;;;7.00;99.90;;;;;;5075523;28;20077;-68
2023/01/10 07:34:21;;;;;;;12.40;3.22;;;6.90;99.90;;;;;;5074468;28;20029;-68
2023/01/10 07:36:46;;;;;;;8.10;2.13;;;6.90;99.90;;;;;;5074670;28;20086;-67
2023/01/10 07:39:12;;;;;;;12.07;1.88;;;6.80;99.90;;;;;;5074462;28;20027;-67
2023/01/10 07:41:37;;;;;;;11.65;2.38;;;6.80;99.90;;;;;;5074039;28;20024;-68
2023/01/10 07:44:03;;;;;;;6.70;1.92;;;6.70;99.90;;;;;;5074418;28;20028;-67
2023/01/10 07:46:28;;;;;;;6.80;2.50;;;6.80;99.90;;;;;;5075382;28;20052;-67
2023/01/10 07:48:54;;;;;;;4.78;1.80;;;6.70;99.90;;;;;;5074099;28;20161;-68
2023/01/10 07:51:19;;;;;;;6.47;1.80;;;6.70;99.90;;;;;;5075471;28;20101;-68
2023/01/10 07:53:45;;;;;;;8.80;2.42;;;6.70;99.90;;;;;;5073933;28;20031;-68
2023/01/10 07:56:10;;;;;;;4.97;1.85;;;6.70;99.90;;;;;;5073938;28;20062;-68
2023/01/10 07:58:36;;;;;;;5.25;1.85;;;6.70;99.90;;;;;;5073670;28;20028;-68
2023/01/10 08:01:05;;;;;;;7.53;1.95;;;6.60;99.90;;;;;;5075068;28;20046;-68
2023/01/10 08:03:34;;;;;;;8.82;2.05;;;6.60;99.90;;;;;;5073710;28;20032;-68
2023/01/10 08:06:01;;;;;;;8.45;1.90;;;6.60;99.90;;;;;;5073655;28;20021;-67
2023/01/10 08:08:26;;;;;;;7.50;1.50;;;6.60;99.90;;;;;;5073930;28;20032;-68
2023/01/10 08:10:52;;;;;;;12.68;2.03;;;6.70;99.90;;;;;;5074719;28;20062;-68
2023/01/10 08:13:17;;;;;;;9.48;1.95;;;6.60;99.90;;;;;;5074802;28;20070;-68
2023/01/10 08:15:44;;;;;;;7.90;2.20;;;6.70;99.90;;;;;;5073398;28;20020;-68
2023/01/10 08:18:09;;;;;;;6.32;2.47;;;6.70;99.90;;;;;;5074724;28;20136;-68
2023/01/10 08:20:35;;;;;;;6.05;1.67;;;6.70;99.90;;;;;;5073314;28;20119;-68
2023/01/10 08:23:00;;;;;;;11.45;2.45;;;6.70;99.90;;;;;;5074603;28;20020;-68
2023/01/10 08:25:26;;;;;;;10.48;1.65;;;6.70;99.90;;;;;;5073217;28;20024;-68
2023/01/10 08:27:52;;;;;;;9.70;1.90;;;6.70;99.90;;;;;;5073197;28;20024;-68
2023/01/10 08:30:18;;;;;;;8.82;1.83;;;6.80;99.90;;;;;;5073714;28;20032;-68
2023/01/10 08:32:44;;;;;;;10.45;2.28;;;6.80;99.90;;;;;;5074288;28;20111;-68
2023/01/10 08:35:10;;;;;;;11.07;1.80;;;6.70;99.90;;;;;;5073056;28;20063;-68
2023/01/10 08:37:36;;;;;;;6.32;1.50;;;6.70;99.90;;;;;;5074257;28;20056;-68
2023/01/10 08:40:02;;;;;;;9.00;1.83;;;6.70;99.90;;;;;;5074121;28;20039;-68
2023/01/10 08:42:27;;;;;;;8.63;3.10;;;6.80;99.90;;;;;;5073238;28;20043;-68
2023/01/10 08:44:53;;;;;;;16.02;2.15;;;6.80;99.90;;;;;;5073755;28;20066;-68
2023/01/10 08:47:19;;;;;;;12.43;1.58;;;6.80;99.90;;;;;;5072807;28;20017;-68
2023/01/10 08:49:45;;;;;;;18.00;1.85;;;6.90;99.90;;;;;;5074008;28;20028;-68
2023/01/10 08:52:11;;;;;;;9.57;2.08;;;6.90;99.90;;;;;;5073070;28;20082;-68
2023/01/10 08:54:37;;;;;;;5.68;1.20;;;6.90;99.90;;;;;;5072676;28;20028;-69
2023/01/10 08:57:02;;;;;;;11.45;1.45;;;6.90;99.90;;;;;;5072650;28;20032;-69
2023/01/10 08:59:28;;;;;;;15.73;2.13;;;7.00;99.90;;;;;;5072876;28;20031;-68
2023/01/10 09:01:57;;;;;;;9.68;1.50;;;7.00;99.90;;;;;;5072545;28;20025;-68
2023/01/10 09:04:23;;;;;;;10.13;1.90;;;7.10;99.90;;;;;;5073403;28;20028;-68
2023/01/10 09:06:48;;;;;;;12.30;1.75;;;7.30;99.90;;;;;;5073793;28;20027;-68
2023/01/10 09:09:14;;;;;;;9.32;1.80;;;7.20;99.90;;;;;;5072430;28;20024;-68
2023/01/10 09:11:39;;;;;;;11.27;1.67;;;7.30;99.90;;;;;;5072404;28;20025;-68
2023/01/10 09:14:06;;;;;;;11.77;1.73;;;7.30;99.90;;;;;;5072272;28;20050;-68
2023/01/10 09:16:32;;;;;;;9.93;2.22;;;7.30;99.90;;;;;;5073908;28;20028;-68
2023/01/10 09:18:57;;;;;;;5.88;1.38;;;7.20;99.90;;;;;;5073569;28;20043;-68
2023/01/10 09:21:23;;;;;;;9.50;1.67;;;7.20;99.90;;;;;;5072184;28;20526;-68
2023/01/10 09:23:48;;;;;;;8.70;1.65;;;7.20;99.90;;;;;;5073611;28;20095;-68
2023/01/10 09:26:14;;;;;;;15.98;2.13;;;7.20;99.90;;;;;;5072875;28;20029;-68
2023/01/10 09:28:39;;;;;;;6.43;1.50;;;7.30;99.90;;;;;;5073465;28;20025;-68
2023/01/10 09:31:07;;;;;;;5.47;1.83;;;7.30;99.90;;;;;;5072108;28;20131;-68
2023/01/10 09:33:33;;;;;;;5.15;1.63;;;7.30;99.90;;;;;;5072575;28;20025;-68
2023/01/10 09:35:59;;;;;;;5.68;1.70;;;7.30;99.90;;;;;;5073339;28;20059;-68
2023/01/10 09:38:24;;;;;;;11.63;1.80;;;7.30;99.90;;;;;;5073184;28;20089;-68
2023/01/10 09:41:16;;;;;;;12.70;1.77;;;7.30;99.90;;;;;;5073112;28;20027;-68
2023/01/10 09:43:56;;;;;;;8.90;1.70;;;7.20;99.90;;;;;;5073212;28;20046;-68
2023/01/10 09:46:29;;;;;;;11.85;1.88;;;7.10;99.90;;;;;;5072307;28;20029;-68
2023/01/10 09:49:13;;;;;;;4.93;1.38;;;7.20;99.90;;;;;;5071686;28;20024;-69
2023/01/10 09:51:42;;;;;;;8.57;1.35;;;7.20;99.90;;;;;;5071745;28;20025;-68
2023/01/10 09:54:22;;;;;;;6.32;1.60;;;7.20;99.90;;;;;;5073045;28;20028;-68
2023/01/10 09:56:48;;;;;;;17.80;1.88;;;7.20;99.90;;;;;;5073042;28;20020;-68
2023/01/10 09:59:22;;;;;;;5.95;1.30;;;7.00;99.90;;;;;;5072522;28;20020;-68
2023/01/10 10:01:53;;;;;;;9.25;1.48;;;6.90;99.90;;;;;;5071753;28;20032;-68
2023/01/10 10:04:35;;;;;;;12.68;1.75;;;6.90;99.90;;;;;;5073331;28;20035;-68
2023/01/10 10:07:03;;;;;;;9.48;1.77;;;6.90;99.90;;;;;;5073023;28;20029;-68
2023/01/10 10:09:31;;;;;;;10.77;1.45;;;7.00;99.90;;;;;;5072555;28;20025;-68
2023/01/10 10:12:09;;;;;;;6.18;1.20;;;7.00;99.90;;;;;;5071821;28;20028;-68
2023/01/10 10:14:56;;;;;;;9.70;1.63;;;7.00;99.90;;;;;;5073325;28;20033;-68
2023/01/10 10:17:46;;;;;;;16.20;1.70;;;7.00;99.90;;;;;;5073301;28;20032;-68
2023/01/10 10:20:18;;;;;;;6.93;1.83;;;7.00;99.90;;;;;;5072865;28;20036;-68
2023/01/10 10:22:52;;;;;;;12.63;1.63;;;7.20;99.90;;;;;;5072252;28;20409;-68
2023/01/10 10:25:46;;;;;;;11.85;1.95;;;7.20;99.90;;;;;;5072926;28;20044;-68
2023/01/10 10:28:30;;;;;;;12.32;2.05;;;7.20;99.90;;;;;;5072925;28;20107;-68
2023/01/10 10:31:15;;;;;;;16.00;1.90;;;7.20;99.90;;;;;;5073101;28;20017;-68
2023/01/10 10:34:07;;;;;;;9.55;1.63;;;7.30;99.90;;;;;;5071964;28;20139;-68
2023/01/10 10:36:44;;;;;;;;;;;7.30;99.90;;;;;;5073072;28;20095;-68
2023/01/10 10:39:16;;;;;;;6.28;1.52;;;7.50;99.90;;;;;;5071398;28;19909;-68
2023/01/10 10:41:45;;;;;;;7.72;1.48;;;7.50;99.90;;;;;;5072699;28;20021;-68
2023/01/10 10:44:25;;;;;;;7.65;1.55;;;7.40;99.90;;;;;;5073057;28;20029;-68
2023/01/10 10:46:52;;;;;;;7.75;1.77;;;7.40;99.90;;;;;;5071604;28;20520;-68
2023/01/10 10:49:40;;;;;;;8.48;1.40;;;7.40;99.90;;;;;;5072240;28;20081;-68
2023/01/10 10:52:22;;;;;;;11.07;1.85;;;7.40;99.90;;;;;;5072341;28;20078;-68
2023/01/10 10:54:47;;;;;;;;;;;7.50;99.90;;;;;;5073582;28;20033;-68
2023/01/10 10:57:13;;;;;;;10.70;1.45;;;7.50;99.90;;;;;;5072749;28;19904;-68
2023/01/10 10:59:42;;;;;;;7.30;1.40;;;7.50;99.90;;;;;;5072494;28;20116;-68
2023/01/10 11:02:18;;;;;;;4.75;1.10;;;7.50;99.90;;;;;;5072600;28;20106;-68
2023/01/10 11:04:44;;;;;;;10.93;1.70;;;7.60;99.90;;;;;;5072704;28;20027;-68
2023/01/10 11:07:16;;;;;;;10.98;2.20;;;7.60;99.90;;;;;;5072836;28;20033;-68
2023/01/10 11:12:31;;;;;;;10.32;2.00;;;7.50;99.90;;;;;;5076575;28;20534;-68
2023/01/10 11:14:58;;;;;;;9.50;1.70;;;7.40;99.90;;;;;;5074895;28;20119;-68
2023/01/10 11:17:30;;;;;;;7.03;1.80;;;7.40;99.90;;;;;;5076097;28;20080;-68
2023/01/10 11:20:06;;;;;;;5.97;1.92;;;7.50;99.90;;;;;;5074731;28;20021;-68
2023/01/10 11:22:39;;;;;;;11.40;1.92;;;7.50;99.90;;;;;;5074569;28;20021;-68
2023/01/10 11:25:17;;;;;;;8.63;1.77;;;7.40;99.90;;;;;;5074854;28;20024;-68
2023/01/10 11:27:55;;;;;;;17.60;1.83;;;7.50;99.90;;;;;;5074580;28;20024;-68
2023/01/10 11:30:24;;;;;;;16.15;2.72;;;7.60;99.90;;;;;;5074597;28;20078;-68
2023/01/10 11:33:02;;;;;;;9.38;1.50;;;7.80;99.90;;;;;;5074586;28;20062;-68
2023/01/10 11:35:35;;;;;;;8.00;1.55;;;7.80;99.90;;;;;;5074639;28;20120;-68
2023/01/10 11:38:13;;;;;;;7.53;1.27;;;7.70;99.90;;;;;;5074933;28;20028;-68
2023/01/10 11:40:55;;;;;;;9.73;1.73;;;7.80;99.90;;;;;;5075963;28;20116;-68
2023/01/10 11:43:33;;;;;;;11.60;1.63;;;7.90;99.90;;;;;;5074873;28;20017;-68
2023/01/10 11:46:20;;;;;;;11.80;1.73;;;7.90;99.90;;;;;;5074935;28;20051;-68
2023/01/10 11:48:49;;;;;;;15.80;3.05;;;8.10;99.90;;;;;;5074386;28;20025;-69
2023/01/10 11:51:23;;;;;;;8.02;2.13;;;8.20;99.90;;;;;;5074124;28;20024;-69
2023/01/10 11:53:57;;;;;;;16.08;1.95;;;8.40;99.90;;;;;;5075273;28;20028;-69
2023/01/10 11:56:27;;;;;;;7.90;1.52;;;8.60;99.90;;;;;;5074055;28;20025;-69
2023/01/10 11:58:53;;;;;;;9.48;1.65;;;8.60;99.90;;;;;;5075167;28;20035;-68
2023/01/10 12:01:32;;;;;;;10.55;1.73;;;8.50;99.90;;;;;;5074765;28;20043;-68
2023/01/10 12:03:58;;;;;;;8.20;1.42;;;8.40;99.90;;;;;;5075865;28;20033;-68
2023/01/10 12:06:24;;;;;;;6.20;1.42;;;8.20;99.90;;;;;;5075418;28;20070;-68
2023/01/10 12:08:54;;;;;;;10.38;1.48;;;8.20;99.90;;;;;;5075385;28;20024;-68
2023/01/10 12:11:31;;;;;;;7.72;2.25;;;8.10;99.90;;;;;;5074090;28;20036;-68
2023/01/10 12:14:01;;;;;;;6.13;2.50;;;8.10;99.90;;;;;;5074154;28;20032;-68
2023/01/10 12:16:34;;;;;;;10.07;1.55;;;8.00;99.90;;;;;;5075155;28;20063;-68
2023/01/10 12:19:09;;;;;;;6.30;1.33;;;8.10;99.90;;;;;;5075195;28;20017;-68
2023/01/10 12:21:39;;;;;;;12.88;2.63;;;8.10;99.90;;;;;;5073713;28;20020;-68
2023/01/10 12:24:21;;;;;;;9.18;1.35;;;8.20;99.90;;;;;;5073504;28;20012;-68
2023/01/10 12:26:49;;;;;;;11.00;1.85;;;8.30;99.90;;;;;;5073529;28;20017;-68
2023/01/10 12:29:20;;;;;;;16.73;2.63;;;8.40;99.90;;;;;;5074689;28;20034;-69
2023/01/10 12:31:45;;;;;;;5.78;1.70;;;8.50;99.90;;;;;;5073676;28;20063;-68
2023/01/10 12:34:21;;;;;;;10.35;1.52;;;8.50;99.90;;;;;;5074872;28;20032;-69
2023/01/10 12:37:19;;;;;;;8.70;1.45;;;8.50;99.90;;;;;;5074767;28;20052;-68
2023/01/10 12:39:54;;;;;;;8.70;1.80;;;8.40;99.90;;;;;;5074103;28;20042;-68
2023/01/10 12:45:31;;;;;;;9.68;1.73;;;8.10;99.90;;;;;;5075241;28;20040;-68
2023/01/10 12:48:29;;;;;;;10.82;1.67;;;8.00;99.90;;;;;;5074696;28;20031;-68
2023/01/10 12:51:06;;;;;;;5.38;1.63;;;8.10;99.90;;;;;;5073335;28;20024;-68
2023/01/10 12:53:40;;;;;;;8.40;1.50;;;8.20;99.90;;;;;;5073105;28;20503;-68
2023/01/10 12:56:12;;;;;;;8.40;1.92;;;8.20;99.90;;;;;;5074351;28;20020;-68
2023/01/10 12:58:51;;;;;;;11.40;1.30;;;8.20;99.90;;;;;;5073555;28;20032;-68
2023/01/10 13:01:39;;;;;;;15.10;1.55;;;8.20;99.90;;;;;;5072935;28;20024;-68
2023/01/10 13:04:19;;;;;;;8.70;2.00;;;8.00;99.90;;;;;;5073904;28;20154;-68
2023/01/10 13:06:45;;;;;;;8.43;1.98;;;8.00;99.90;;;;;;5074178;28;20017;-68
2023/01/10 13:09:24;;;;;;;5.78;1.50;;;8.00;99.90;;;;;;5073490;28;20032;-68
2023/01/10 13:12:06;;;;;;;9.75;1.88;;;8.00;99.90;;;;;;5072919;28;20126;-68
2023/01/10 13:14:42;;;;;;;10.02;1.67;;;8.10;99.90;;;;;;5074306;28;20403;-68
2023/01/10 13:17:36;;;;;;;7.30;2.10;;;8.10;99.90;;;;;;5073547;28;20024;-68
2023/01/10 13:20:20;;;;;;;10.52;1.77;;;8.20;99.90;;;;;;5074416;28;20189;-68
2023/01/10 13:22:51;;;;;;;10.43;2.03;;;8.10;99.90;;;;;;5072684;28;20107;-68
2023/01/10 13:25:33;;;;;;;10.27;1.57;;;8.10;99.90;;;;;;5072760;28;20050;-68